Time;durP1;ratioP1;P1;durP2;ratioP2;P2;SDS_P1;SDS_P2;PMS_P1;PMS_P2;Temp;Humidity;BMP_temperature;BMP_pressure;BME280_temperature;BME280_humidity;BME280_pressure;Samples;Min_cycle;Max_cycle;Signal;HPM_P1;HPM_P2
2022/08/07 00:01:55;;;;;;;0.22;0.22;;;15.00;99.90;;;;;;5114022;28;20023;-77
2022/08/07 00:04:21;;;;;;;0.70;0.30;;;14.90;99.90;;;;;;5114244;28;20500;-76
2022/08/07 00:06:46;;;;;;;0.30;0.30;;;14.80;99.90;;;;;;5114095;28;20034;-76
2022/08/07 00:09:12;;;;;;;1.05;0.28;;;14.60;99.90;;;;;;5113991;28;20028;-74
2022/08/07 00:11:38;;;;;;;0.15;0.15;;;14.50;99.90;;;;;;5095798;28;20391;-74
2022/08/07 00:14:03;;;;;;;0.20;0.20;;;14.50;99.90;;;;;;5114014;28;20020;-74
2022/08/07 00:16:29;;;;;;;0.40;0.40;;;14.50;99.90;;;;;;5113929;28;20391;-74
2022/08/07 00:18:55;;;;;;;0.15;0.15;;;14.40;99.90;;;;;;5095752;28;20069;-74
2022/08/07 00:21:20;;;;;;;0.52;0.28;;;14.40;99.90;;;;;;5095647;28;20040;-75
2022/08/07 00:23:46;;;;;;;0.10;0.10;;;14.40;99.90;;;;;;5113910;28;20400;-76
2022/08/07 00:26:12;;;;;;;0.20;0.20;;;14.40;99.90;;;;;;5113969;28;20027;-74
2022/08/07 00:28:38;;;;;;;0.35;0.20;;;14.40;99.90;;;;;;5113808;28;20020;-75
2022/08/07 00:31:07;;;;;;;0.35;0.35;;;14.40;99.90;;;;;;5113819;28;20028;-74
2022/08/07 00:33:35;;;;;;;0.52;0.50;;;14.30;99.90;;;;;;5113795;28;20027;-76
2022/08/07 00:36:02;;;;;;;0.00;0.00;;;14.30;99.90;;;;;;5113670;28;20481;-76
2022/08/07 00:38:27;;;;;;;0.32;0.32;;;14.20;99.90;;;;;;5113802;28;20081;-73
2022/08/07 00:40:53;;;;;;;0.73;0.30;;;14.10;99.90;;;;;;5113706;28;20473;-74
2022/08/07 00:43:19;;;;;;;0.20;0.20;;;14.00;99.90;;;;;;5113930;28;20019;-77
2022/08/07 00:45:44;;;;;;;0.13;0.13;;;14.10;99.90;;;;;;5113501;28;20391;-74
2022/08/07 00:48:10;;;;;;;0.10;0.10;;;14.10;99.90;;;;;;5095313;28;20027;-74
2022/08/07 00:50:40;;;;;;;0.38;0.38;;;14.20;99.90;;;;;;5113719;28;20034;-75
2022/08/07 00:53:06;;;;;;;0.30;0.30;;;14.20;99.90;;;;;;5113504;28;20047;-74
2022/08/07 00:55:32;;;;;;;0.10;0.10;;;14.20;99.90;;;;;;5113613;28;20016;-76
2022/08/07 00:57:57;;;;;;;0.43;0.43;;;14.30;99.90;;;;;;5095331;28;20494;-73
2022/08/07 01:00:23;;;;;;;0.50;0.50;;;14.30;99.90;;;;;;5113867;28;20099;-74
2022/08/07 01:02:49;;;;;;;0.32;0.30;;;14.30;99.90;;;;;;5113418;28;20494;-74
2022/08/07 01:05:16;;;;;;;0.50;0.50;;;14.30;99.90;;;;;;5113397;28;20472;-77
2022/08/07 01:07:42;;;;;;;0.30;0.30;;;14.20;99.90;;;;;;5097396;28;20488;-77
2022/08/07 01:10:09;;;;;;;0.40;0.40;;;14.30;99.90;;;;;;5117614;28;20027;-76
2022/08/07 01:12:37;;;;;;;0.47;0.47;;;14.20;99.90;;;;;;5118829;28;20020;-77
2022/08/07 01:15:04;;;;;;;1.17;0.20;;;14.00;99.90;;;;;;5117223;28;20377;-77
2022/08/07 01:17:31;;;;;;;0.10;0.10;;;13.90;99.90;;;;;;5099117;28;20047;-75
2022/08/07 01:20:03;;;;;;;0.30;0.30;;;13.90;99.90;;;;;;5117030;28;20109;-75
2022/08/07 01:22:30;;;;;;;1.60;1.08;;;13.80;99.90;;;;;;5117039;28;20023;-74
2022/08/07 01:24:56;;;;;;;0.30;0.30;;;13.70;99.90;;;;;;5116972;28;20032;-74
2022/08/07 01:27:22;;;;;;;0.50;0.50;;;13.60;99.90;;;;;;5116913;28;20023;-75
2022/08/07 01:29:49;;;;;;;0.25;0.25;;;13.50;99.90;;;;;;5117008;28;20036;-74
2022/08/07 01:32:15;;;;;;;0.35;0.35;;;13.50;99.90;;;;;;5117126;28;20102;-74
2022/08/07 01:34:44;;;;;;;0.40;0.40;;;13.40;99.90;;;;;;5116938;28;20050;-74
2022/08/07 01:37:12;;;;;;;1.07;0.93;;;13.30;99.90;;;;;;5116885;28;20023;-73
2022/08/07 01:39:38;;;;;;;0.20;0.20;;;13.20;99.90;;;;;;5117055;28;20062;-74
2022/08/07 01:42:04;;;;;;;0.10;0.10;;;13.20;99.90;;;;;;5116543;28;20472;-74
2022/08/07 01:44:30;;;;;;;7.05;1.20;;;13.10;99.90;;;;;;5116604;28;20080;-74
2022/08/07 01:46:57;;;;;;;5.15;1.05;;;13.10;99.90;;;;;;5116682;28;20019;-75
2022/08/07 01:49:23;;;;;;;0.30;0.30;;;13.10;99.90;;;;;;5116633;28;20056;-76
2022/08/07 01:51:49;;;;;;;0.40;0.40;;;13.10;99.90;;;;;;5116366;28;20063;-74
2022/08/07 01:54:19;;;;;;;0.98;0.88;;;13.10;99.90;;;;;;5116573;28;20036;-74
2022/08/07 01:56:47;;;;;;;0.40;0.40;;;13.00;99.90;;;;;;5098252;28;20077;-76
2022/08/07 01:59:37;;;;;;;0.32;0.32;;;13.00;99.90;;;;;;5098063;28;20090;-75
2022/08/07 02:02:07;;;;;;;0.20;0.15;;;13.00;99.90;;;;;;5115656;28;20039;-74
2022/08/07 02:04:38;;;;;;;0.20;0.20;;;12.80;99.90;;;;;;5116368;28;20027;-74
2022/08/07 02:07:06;;;;;;;0.20;0.20;;;12.80;99.90;;;;;;5098049;28;20147;-74
2022/08/07 02:09:32;;;;;;;0.50;0.50;;;12.70;99.90;;;;;;5116007;28;20020;-77
2022/08/07 02:12:15;;;;;;;0.30;0.30;;;12.60;99.90;;;;;;5116160;28;20114;-75
2022/08/07 02:14:46;;;;;;;0.32;0.32;;;12.50;99.90;;;;;;5116249;28;20379;-75
2022/08/07 02:17:14;;;;;;;2.33;0.65;;;12.40;99.90;;;;;;5116058;28;20090;-76
2022/08/07 02:19:47;;;;;;;0.40;0.40;;;12.30;99.90;;;;;;5097127;28;20058;-74
2022/08/07 02:22:14;;;;;;;1.85;0.43;;;12.30;99.90;;;;;;5116270;28;20103;-79
2022/08/07 02:24:42;;;;;;;0.17;0.17;;;12.20;99.90;;;;;;5115844;28;20100;-74
2022/08/07 02:27:08;;;;;;;0.57;0.57;;;12.10;99.90;;;;;;5115993;28;20027;-73
2022/08/07 02:29:35;;;;;;;2.40;0.40;;;12.10;99.90;;;;;;5115836;28;20114;-74
2022/08/07 02:32:02;;;;;;;0.28;0.28;;;12.10;99.90;;;;;;5115778;28;20030;-73
2022/08/07 02:34:29;;;;;;;2.10;0.90;;;12.00;99.90;;;;;;5115757;28;20028;-74
2022/08/07 02:36:57;;;;;;;0.50;0.50;;;11.90;99.90;;;;;;5115523;28;20048;-74
2022/08/07 02:39:24;;;;;;;0.35;0.35;;;11.90;99.90;;;;;;5115490;28;20490;-75
2022/08/07 02:41:52;;;;;;;0.20;0.20;;;11.90;99.90;;;;;;5115602;28;20479;-73
2022/08/07 02:44:20;;;;;;;0.30;0.30;;;11.90;99.90;;;;;;5115356;28;20103;-74
2022/08/07 02:46:47;;;;;;;0.25;0.25;;;11.80;99.90;;;;;;5115433;28;20476;-73
2022/08/07 02:49:13;;;;;;;0.20;0.20;;;11.70;99.90;;;;;;5115549;28;20023;-73
2022/08/07 02:51:40;;;;;;;0.10;0.10;;;11.60;99.90;;;;;;5097078;28;20027;-76
2022/08/07 02:54:10;;;;;;;0.38;0.38;;;11.50;99.90;;;;;;5115239;28;20035;-76
2022/08/07 02:56:38;;;;;;;0.20;0.20;;;11.50;99.90;;;;;;5097024;28;20384;-75
2022/08/07 02:59:09;;;;;;;0.40;0.40;;;11.40;99.90;;;;;;5115382;28;20035;-76
2022/08/07 03:01:37;;;;;;;0.10;0.10;;;11.40;99.90;;;;;;5115166;28;20020;-75
2022/08/07 03:04:09;;;;;;;1.75;1.00;;;11.50;99.90;;;;;;5096940;28;20031;-76
2022/08/07 03:06:36;;;;;;;0.20;0.20;;;11.50;99.90;;;;;;5115142;28;20027;-76
2022/08/07 03:09:04;;;;;;;0.20;0.20;;;11.50;99.90;;;;;;5115079;28;20055;-75
2022/08/07 03:11:33;;;;;;;0.30;0.30;;;11.50;99.90;;;;;;5114952;28;20051;-77
2022/08/07 03:14:01;;;;;;;0.38;0.30;;;11.50;99.90;;;;;;5114805;28;20019;-74
2022/08/07 03:16:27;;;;;;;0.30;0.30;;;11.50;99.90;;;;;;5114743;28;20073;-74
2022/08/07 03:18:53;;;;;;;2.50;0.68;;;11.40;99.90;;;;;;5114845;28;20016;-74
2022/08/07 03:21:19;;;;;;;0.20;0.20;;;11.30;99.90;;;;;;5114713;28;20058;-74
2022/08/07 03:23:47;;;;;;;0.30;0.30;;;11.30;99.90;;;;;;5114843;28;20020;-74
2022/08/07 03:26:17;;;;;;;0.20;0.20;;;11.30;99.90;;;;;;5114732;28;20486;-74
2022/08/07 03:28:45;;;;;;;0.10;0.10;;;11.30;99.90;;;;;;5114697;28;20023;-74
2022/08/07 03:31:17;;;;;;;0.38;0.30;;;11.20;99.90;;;;;;5113792;28;20502;-74
2022/08/07 03:33:47;;;;;;;0.10;0.10;;;11.20;99.90;;;;;;5114778;28;20024;-75
2022/08/07 03:36:13;;;;;;;0.20;0.13;;;11.20;99.90;;;;;;5114475;28;20464;-74
2022/08/07 03:38:41;;;;;;;0.20;0.20;;;11.10;99.90;;;;;;5114515;28;20020;-75
2022/08/07 03:41:08;;;;;;;0.40;0.40;;;11.10;99.90;;;;;;5114564;28;20042;-74
2022/08/07 03:43:37;;;;;;;0.20;0.20;;;11.10;99.90;;;;;;5114396;28;20020;-75
2022/08/07 03:46:04;;;;;;;0.20;0.20;;;11.10;99.90;;;;;;5114346;28;20073;-74
2022/08/07 03:48:34;;;;;;;0.30;0.30;;;11.10;99.90;;;;;;5114474;28;20019;-74
2022/08/07 03:51:02;;;;;;;0.30;0.30;;;11.00;99.90;;;;;;5114366;28;20365;-73
2022/08/07 03:53:27;;;;;;;0.20;0.20;;;11.00;99.90;;;;;;5113970;28;20102;-74
2022/08/07 03:55:55;;;;;;;0.57;0.55;;;11.00;99.90;;;;;;5114266;28;20488;-74
2022/08/07 03:58:23;;;;;;;0.85;0.85;;;10.90;99.90;;;;;;5114194;28;20027;-74
2022/08/07 04:00:51;;;;;;;0.38;0.38;;;10.90;99.90;;;;;;5114248;28;20015;-73
2022/08/07 04:03:18;;;;;;;0.75;0.60;;;10.80;99.90;;;;;;5114327;28;20111;-74
2022/08/07 04:05:44;;;;;;;0.57;0.30;;;10.80;99.90;;;;;;5114006;28;20451;-76
2022/08/07 04:08:11;;;;;;;0.38;0.38;;;10.70;99.90;;;;;;5114130;28;20054;-74
2022/08/07 04:10:41;;;;;;;1.13;0.60;;;10.80;99.90;;;;;;5114116;28;20020;-74
2022/08/07 04:13:11;;;;;;;3.58;0.20;;;10.70;99.90;;;;;;5114025;28;20050;-75
2022/08/07 04:15:37;;;;;;;0.17;0.17;;;10.70;99.90;;;;;;5095483;28;20030;-74
2022/08/07 04:18:03;;;;;;;0.25;0.25;;;10.70;99.90;;;;;;5095792;28;20024;-74
2022/08/07 04:20:30;;;;;;;0.38;0.30;;;10.70;99.90;;;;;;5095766;28;20379;-74
2022/08/07 04:22:57;;;;;;;0.40;0.40;;;10.70;99.90;;;;;;5113849;28;20084;-74
2022/08/07 04:25:24;;;;;;;0.80;0.75;;;10.70;99.90;;;;;;5113913;28;20043;-76
2022/08/07 04:27:50;;;;;;;0.20;0.20;;;10.70;99.90;;;;;;5113927;28;20424;-76
2022/08/07 04:30:16;;;;;;;0.40;0.40;;;10.70;99.90;;;;;;5113670;28;20023;-76
2022/08/07 04:32:42;;;;;;;0.30;0.30;;;10.80;99.90;;;;;;5113683;28;20495;-76
2022/08/07 04:35:09;;;;;;;0.10;0.10;;;10.80;99.90;;;;;;5114016;28;20020;-74
2022/08/07 04:37:35;;;;;;;0.40;0.30;;;10.80;99.90;;;;;;5113786;28;20027;-75
2022/08/07 04:40:04;;;;;;;0.20;0.20;;;10.90;99.90;;;;;;5113769;28;20028;-76
2022/08/07 04:42:33;;;;;;;0.20;0.20;;;10.90;99.90;;;;;;5114321;28;20019;-76
2022/08/07 04:45:01;;;;;;;0.47;0.47;;;10.90;99.90;;;;;;5117780;28;20091;-75
2022/08/07 04:47:37;;;;;;;0.20;0.20;;;10.90;99.90;;;;;;5117751;28;20023;-76
2022/08/07 04:50:12;;;;;;;0.38;0.38;;;10.90;99.90;;;;;;5117722;28;20031;-75
2022/08/07 04:53:02;;;;;;;0.20;0.20;;;11.00;99.90;;;;;;5117422;28;20051;-75
2022/08/07 04:55:54;;;;;;;0.98;0.40;;;11.10;99.90;;;;;;5117750;28;20578;-77
2022/08/07 04:59:03;;;;;;;0.30;0.30;;;11.10;99.90;;;;;;5117673;28;20027;-76
2022/08/07 05:01:45;;;;;;;1.27;0.80;;;11.30;99.90;;;;;;5099250;28;20020;-75
2022/08/07 05:04:17;;;;;;;0.50;0.50;;;11.40;99.90;;;;;;5117428;28;20031;-76
2022/08/07 05:07:12;;;;;;;0.50;0.45;;;11.50;99.90;;;;;;5117376;28;20031;-76
2022/08/07 05:09:55;;;;;;;2.17;1.23;;;11.50;99.90;;;;;;5117407;28;20065;-77
2022/08/07 05:12:28;;;;;;;0.40;0.40;;;11.60;99.90;;;;;;5117325;28;20023;-75
2022/08/07 05:15:14;;;;;;;0.47;0.47;;;11.60;99.90;;;;;;5117262;28;20060;-74
2022/08/07 05:17:48;;;;;;;0.40;0.40;;;11.70;99.90;;;;;;5098999;28;20027;-73
2022/08/07 05:20:20;;;;;;;0.55;0.55;;;11.90;99.90;;;;;;5118056;28;20024;-74
2022/08/07 05:22:49;;;;;;;0.45;0.45;;;11.90;99.90;;;;;;5126361;28;20023;-76
2022/08/07 05:25:16;;;;;;;6.63;2.25;;;12.00;99.90;;;;;;5104243;28;20027;-73
2022/08/07 05:27:45;;;;;;;0.30;0.30;;;12.00;99.90;;;;;;5117859;28;20030;-73
2022/08/07 05:30:11;;;;;;;0.20;0.20;;;12.20;99.90;;;;;;5116942;28;20107;-74
2022/08/07 05:32:38;;;;;;;0.22;0.22;;;12.20;99.90;;;;;;5116954;28;20016;-74
2022/08/07 05:35:06;;;;;;;4.00;1.20;;;12.30;99.90;;;;;;5116909;28;20030;-74
2022/08/07 05:37:32;;;;;;;0.65;0.65;;;12.40;99.90;;;;;;5116903;28;20407;-76
2022/08/07 05:39:59;;;;;;;0.30;0.30;;;12.60;99.90;;;;;;5117325;28;20023;-75
2022/08/07 05:42:26;;;;;;;0.15;0.15;;;12.70;99.90;;;;;;5098461;28;20023;-75
2022/08/07 05:44:53;;;;;;;0.20;0.17;;;12.90;99.90;;;;;;5116849;28;20480;-76
2022/08/07 05:47:20;;;;;;;0.20;0.20;;;13.10;99.90;;;;;;5116534;28;20043;-77
2022/08/07 05:49:50;;;;;;;0.38;0.38;;;13.20;99.90;;;;;;5116539;28;20030;-76
2022/08/07 05:52:19;;;;;;;0.20;0.20;;;13.40;99.90;;;;;;5116497;28;20077;-77
2022/08/07 05:54:45;;;;;;;0.20;0.20;;;13.60;99.90;;;;;;5115526;28;20024;-74
2022/08/07 05:57:13;;;;;;;0.32;0.32;;;13.80;99.90;;;;;;5098157;28;20077;-75
2022/08/07 05:59:41;;;;;;;0.20;0.20;;;14.10;99.90;;;;;;5098250;28;20369;-74
2022/08/07 06:02:08;;;;;;;0.30;0.30;;;14.50;99.90;;;;;;5097955;28;20425;-74
2022/08/07 06:04:38;;;;;;;1.13;0.68;;;14.70;99.90;;;;;;5115947;28;20484;-74
2022/08/07 06:07:04;;;;;;;0.65;0.47;;;14.90;99.90;;;;;;5116231;28;20168;-73
2022/08/07 06:09:33;;;;;;;0.45;0.45;;;15.00;99.90;;;;;;5116174;28;20028;-76
2022/08/07 06:11:59;;;;;;;1.00;0.65;;;15.10;99.90;;;;;;5116282;28;20034;-75
2022/08/07 06:14:25;;;;;;;0.30;0.30;;;15.20;99.90;;;;;;5116196;28;20038;-74
2022/08/07 06:16:52;;;;;;;0.40;0.35;;;15.30;99.90;;;;;;5116038;28;20503;-76
2022/08/07 06:19:19;;;;;;;0.30;0.30;;;15.40;99.90;;;;;;5097841;28;20028;-76
2022/08/07 06:21:46;;;;;;;0.10;0.10;;;15.40;99.90;;;;;;5116071;28;20012;-74
2022/08/07 06:24:12;;;;;;;0.50;0.22;;;15.40;99.90;;;;;;5115886;28;20064;-77
2022/08/07 06:26:39;;;;;;;0.10;0.10;;;15.40;99.90;;;;;;5115909;28;20019;-74
2022/08/07 06:29:05;;;;;;;0.40;0.30;;;15.30;99.90;;;;;;5115829;28;20026;-75
2022/08/07 06:31:31;;;;;;;0.15;0.15;;;15.30;99.90;;;;;;5115795;28;20019;-75
2022/08/07 06:33:57;;;;;;;0.13;0.13;;;15.40;99.90;;;;;;5115875;28;20069;-73
2022/08/07 06:36:25;;;;;;;1.23;0.57;;;15.50;99.90;;;;;;5115865;28;20051;-76
2022/08/07 06:38:52;;;;;;;0.30;0.30;;;15.60;99.90;;;;;;5115666;28;20027;-75
2022/08/07 06:41:30;;;;;;;0.30;0.30;;;15.70;99.90;;;;;;5097311;28;20024;-76
2022/08/07 06:43:57;;;;;;;0.10;0.10;;;15.80;99.90;;;;;;5115372;28;20084;-74
2022/08/07 06:46:23;;;;;;;0.20;0.20;;;15.90;99.90;;;;;;5115404;28;20032;-75
2022/08/07 06:48:48;;;;;;;7.03;0.68;;;15.80;99.90;;;;;;5115384;28;20129;-74
2022/08/07 06:51:19;;;;;;;0.20;0.20;;;15.90;99.90;;;;;;5115581;28;20384;-75
2022/08/07 06:53:46;;;;;;;1.75;0.57;;;15.90;99.90;;;;;;5115240;28;20047;-74
2022/08/07 06:56:13;;;;;;;0.47;0.47;;;16.00;99.90;;;;;;5115613;28;20011;-75
2022/08/07 06:58:40;;;;;;;0.55;0.55;;;16.10;99.90;;;;;;5115382;28;20031;-75
2022/08/07 07:01:09;;;;;;;0.43;0.30;;;15.90;99.90;;;;;;5115226;28;20023;-76
2022/08/07 07:03:40;;;;;;;0.82;0.82;;;15.80;99.90;;;;;;5115205;28;20418;-75
2022/08/07 07:06:09;;;;;;;0.17;0.17;;;16.10;99.90;;;;;;5114876;28;20027;-76
2022/08/07 07:08:35;;;;;;;0.47;0.47;;;16.60;99.90;;;;;;5114927;28;20054;-75
2022/08/07 07:11:03;;;;;;;0.45;0.45;;;17.70;99.90;;;;;;5115152;28;20027;-76
2022/08/07 07:13:39;;;;;;;4.57;2.05;;;18.70;95.80;;;;;;5115045;28;20023;-74
2022/08/07 07:16:15;;;;;;;0.25;0.25;;;19.60;90.70;;;;;;5114883;28;20047;-76
2022/08/07 07:18:53;;;;;;;0.20;0.20;;;21.40;74.70;;;;;;5114656;28;20169;-75
2022/08/07 07:21:34;;;;;;;0.10;0.10;;;21.50;75.20;;;;;;5114304;28;20019;-79
2022/08/07 07:24:01;;;;;;;2.90;0.50;;;22.30;70.40;;;;;;5114673;28;20023;-75
2022/08/07 07:26:31;;;;;;;2.00;0.28;;;21.90;69.10;;;;;;5114681;28;20038;-76
2022/08/07 07:29:01;;;;;;;0.32;0.32;;;21.40;69.40;;;;;;5096538;28;20058;-75
2022/08/07 07:31:39;;;;;;;0.47;0.47;;;21.20;70.40;;;;;;5114680;28;20096;-77
2022/08/07 07:34:08;;;;;;;0.35;0.35;;;21.40;69.50;;;;;;5114676;28;20354;-76
2022/08/07 07:36:36;;;;;;;0.10;0.10;;;20.90;70.50;;;;;;5096345;28;20110;-77
2022/08/07 07:39:03;;;;;;;0.30;0.30;;;21.90;68.20;;;;;;5114500;28;20064;-76
2022/08/07 07:41:32;;;;;;;0.17;0.17;;;21.90;68.60;;;;;;5114600;28;20023;-75
2022/08/07 07:44:00;;;;;;;0.20;0.20;;;22.30;67.70;;;;;;5114332;28;20047;-75
2022/08/07 07:46:29;;;;;;;1.00;0.65;;;22.80;66.80;;;;;;5114445;28;20024;-74
2022/08/07 07:48:57;;;;;;;0.10;0.10;;;22.80;66.00;;;;;;5114266;28;20114;-75
2022/08/07 07:51:24;;;;;;;0.40;0.40;;;22.90;65.60;;;;;;5113805;28;20038;-75
2022/08/07 07:53:52;;;;;;;0.50;0.50;;;23.00;64.00;;;;;;5095537;28;20040;-78
2022/08/07 07:56:20;;;;;;;0.20;0.20;;;22.60;64.90;;;;;;5095302;28;20024;-78
2022/08/07 07:58:48;;;;;;;2.28;1.17;;;22.70;65.70;;;;;;5095556;28;20023;-77
2022/08/07 08:01:15;;;;;;;0.32;0.20;;;23.00;64.70;;;;;;5113820;28;20094;-76
2022/08/07 08:03:43;;;;;;;0.52;0.45;;;23.30;63.80;;;;;;5113776;28;20480;-75
2022/08/07 08:06:11;;;;;;;0.95;0.40;;;24.00;63.40;;;;;;5113820;28;20080;-77
2022/08/07 08:08:40;;;;;;;0.52;0.52;;;25.20;61.30;;;;;;5113774;28;20048;-78
2022/08/07 08:11:09;;;;;;;;;;;24.80;59.70;;;;;;5114378;28;20024;-75
2022/08/07 08:13:42;;;;;;;0.57;0.22;;;24.30;61.40;;;;;;5095444;28;19918;-77
2022/08/07 08:16:11;;;;;;;2.28;1.45;;;24.30;60.60;;;;;;5113603;28;20032;-78
2022/08/07 08:18:37;;;;;;;0.20;0.20;;;24.40;60.70;;;;;;5113170;28;20484;-76
2022/08/07 08:21:05;;;;;;;0.88;0.40;;;24.10;61.20;;;;;;5113746;28;20028;-79
2022/08/07 08:29:05;;;;;;;0.73;0.73;;;24.10;61.50;;;;;;5119615;28;20050;-73
2022/08/07 08:31:34;;;;;;;0.60;0.60;;;23.50;64.40;;;;;;5117708;28;20067;-76
2022/08/07 08:34:04;;;;;;;0.20;0.20;;;23.80;63.60;;;;;;5095888;28;20034;-85
2022/08/07 08:36:31;;;;;;;;;;;24.10;63.00;;;;;;5097824;28;20027;-74
2022/08/07 08:39:00;;;;;;;0.43;0.43;;;23.60;63.90;;;;;;5098396;28;19911;-81
2022/08/07 08:42:01;;;;;;;0.50;0.30;;;24.20;64.00;;;;;;5096352;28;20057;-79
2022/08/07 08:44:35;;;;;;;0.43;0.30;;;24.80;62.90;;;;;;5113990;28;20510;-85
2022/08/07 08:47:20;;;;;;;0.13;0.13;;;25.20;62.90;;;;;;5114601;28;20031;-80
2022/08/07 08:49:51;;;;;;;0.55;0.40;;;24.80;62.20;;;;;;5114929;28;20024;-80
2022/08/07 08:52:43;;;;;;;1.30;0.43;;;25.10;63.30;;;;;;5098498;28;20502;-86
2022/08/07 08:55:19;;;;;;;0.38;0.38;;;25.50;62.50;;;;;;5099834;28;20020;-78
2022/08/07 08:58:08;;;;;;;0.88;0.70;;;25.00;62.50;;;;;;5116669;28;20038;-80
2022/08/07 09:00:41;;;;;;;1.23;0.40;;;24.90;63.00;;;;;;5096316;28;20047;-81
2022/08/07 09:04:05;;;;;;;0.20;0.20;;;24.70;63.70;;;;;;5118361;28;20053;-81
2022/08/07 09:06:53;;;;;;;0.50;0.50;;;25.20;62.70;;;;;;5034351;28;20052;-80
2022/08/07 09:10:03;;;;;;;0.70;0.70;;;25.50;62.90;;;;;;5017332;28;20025;-82
2022/08/07 09:13:08;;;;;;;0.90;0.55;;;25.20;64.00;;;;;;5117225;28;20028;-78
2022/08/07 09:15:48;;;;;;;0.82;0.80;;;25.50;63.00;;;;;;5097373;28;20024;-80
2022/08/07 09:18:51;;;;;;;2.75;0.40;;;25.50;62.20;;;;;;5095176;28;20015;-78
2022/08/07 09:21:46;;;;;;;1.67;1.58;;;25.00;63.50;;;;;;5114308;28;20028;-75
2022/08/07 09:24:30;;;;;;;0.47;0.25;;;25.00;63.50;;;;;;5094898;28;20029;-74
2022/08/07 09:27:19;;;;;;;0.32;0.32;;;25.10;62.50;;;;;;5113163;28;20028;-76
2022/08/07 09:29:47;;;;;;;1.10;0.85;;;25.40;62.40;;;;;;5095741;28;20024;-81
2022/08/07 09:32:41;;;;;;;0.45;0.45;;;25.40;62.90;;;;;;5098600;28;20041;-79
2022/08/07 09:35:13;;;;;;;1.13;0.60;;;25.00;62.40;;;;;;5116881;28;20027;-81
2022/08/07 09:37:43;;;;;;;0.22;0.22;;;25.20;63.90;;;;;;5117017;28;20494;-77
2022/08/07 09:40:33;;;;;;;2.83;0.98;;;25.70;65.00;;;;;;5098458;28;20034;-78
2022/08/07 09:43:07;;;;;;;0.60;0.50;;;25.40;65.00;;;;;;5098454;28;20020;-75
2022/08/07 09:45:46;;;;;;;0.35;0.30;;;24.90;66.60;;;;;;5116480;28;20092;-80
2022/08/07 09:48:21;;;;;;;0.20;0.20;;;24.90;65.50;;;;;;5116542;28;20551;-80
2022/08/07 09:50:53;;;;;;;0.38;0.38;;;25.10;65.20;;;;;;5098165;28;20040;-75
2022/08/07 09:53:22;;;;;;;0.93;0.35;;;24.90;65.50;;;;;;5097831;28;20046;-74
2022/08/07 09:56:30;;;;;;;0.70;0.65;;;24.60;64.60;;;;;;5098194;28;20155;-85
2022/08/07 09:59:27;;;;;;;3.45;0.73;;;24.60;64.30;;;;;;5099018;28;20079;-77
2022/08/07 10:02:32;;;;;;;0.30;0.30;;;24.80;65.00;;;;;;5116467;28;20027;-81
2022/08/07 10:05:01;;;;;;;0.30;0.30;;;25.50;63.10;;;;;;5116338;28;20036;-74
2022/08/07 10:07:43;;;;;;;1.58;1.45;;;25.50;62.30;;;;;;5116782;28;20024;-84
2022/08/07 10:10:17;;;;;;;1.80;0.50;;;25.10;63.70;;;;;;5116114;28;20028;-77
2022/08/07 10:13:07;;;;;;;1.20;0.60;;;24.90;62.70;;;;;;5115799;28;20472;-79
2022/08/07 10:15:36;;;;;;;1.05;0.40;;;24.70;63.80;;;;;;5097931;28;20030;-77
2022/08/07 10:18:23;;;;;;;0.20;0.20;;;24.60;64.60;;;;;;5115759;28;20051;-73
2022/08/07 10:21:07;;;;;;;0.70;0.38;;;24.80;63.60;;;;;;5097541;28;20023;-76
2022/08/07 10:23:53;;;;;;;0.70;0.70;;;25.50;63.70;;;;;;5097172;28;20384;-72
2022/08/07 10:26:46;;;;;;;0.40;0.40;;;25.60;63.80;;;;;;5115823;28;20035;-74
2022/08/07 10:29:31;;;;;;;0.30;0.30;;;25.60;64.10;;;;;;5115376;28;20019;-73
2022/08/07 10:32:20;;;;;;;1.10;1.02;;;25.70;62.30;;;;;;5115674;28;20022;-78
2022/08/07 10:35:23;;;;;;;1.27;0.77;;;25.30;63.40;;;;;;5115594;28;20388;-76
2022/08/07 10:38:07;;;;;;;0.73;0.47;;;25.10;63.20;;;;;;5097056;28;20028;-72
2022/08/07 10:40:40;;;;;;;0.95;0.70;;;25.40;64.00;;;;;;5114344;28;20016;-75
2022/08/07 10:43:11;;;;;;;0.30;0.30;;;25.40;62.60;;;;;;5114686;28;20468;-74
2022/08/07 10:45:39;;;;;;;0.52;0.45;;;25.90;62.00;;;;;;5096313;28;20377;-75
2022/08/07 10:48:04;;;;;;;0.35;0.35;;;25.90;64.40;;;;;;5096526;28;20020;-74
2022/08/07 10:50:41;;;;;;;0.55;0.45;;;26.50;63.80;;;;;;5096245;28;20073;-74
2022/08/07 10:53:48;;;;;;;0.25;0.25;;;26.70;62.40;;;;;;5114586;28;20059;-75
2022/08/07 10:56:35;;;;;;;0.30;0.30;;;26.60;61.90;;;;;;5111018;28;20035;-73
2022/08/07 10:59:51;;;;;;;0.40;0.40;;;26.20;60.90;;;;;;5096673;28;20100;-73
2022/08/07 11:02:41;;;;;;;0.60;0.60;;;26.20;64.20;;;;;;5032209;28;20032;-74
2022/08/07 11:05:20;;;;;;;0.63;0.38;;;26.20;65.70;;;;;;5096568;28;20031;-74
2022/08/07 11:08:00;;;;;;;1.08;0.85;;;26.60;64.80;;;;;;5114601;28;20136;-72
2022/08/07 11:10:39;;;;;;;0.85;0.85;;;27.30;62.60;;;;;;5096481;28;20031;-74
2022/08/07 11:13:27;;;;;;;0.30;0.30;;;28.10;61.60;;;;;;5114653;28;20537;-74
2022/08/07 11:15:58;;;;;;;0.20;0.20;;;28.40;59.40;;;;;;5114396;28;20031;-73
2022/08/07 11:18:36;;;;;;;6.32;2.42;;;28.20;61.30;;;;;;5096017;28;20349;-73
2022/08/07 11:21:33;;;;;;;0.30;0.30;;;28.20;58.80;;;;;;5114668;28;20031;-73
2022/08/07 11:24:34;;;;;;;10.15;1.67;;;28.50;59.20;;;;;;5096113;28;20028;-76
2022/08/07 11:27:16;;;;;;;4.30;0.55;;;29.00;58.60;;;;;;5053606;28;20039;-74
2022/08/07 11:30:01;;;;;;;0.47;0.47;;;29.00;57.30;;;;;;5114334;28;20019;-75
2022/08/07 11:32:42;;;;;;;0.32;0.32;;;28.90;58.60;;;;;;5114143;28;20471;-75
2022/08/07 11:35:14;;;;;;;0.40;0.40;;;28.50;60.20;;;;;;5114415;28;20027;-73
2022/08/07 11:37:39;;;;;;;0.30;0.30;;;28.30;58.80;;;;;;5114137;28;20027;-74
2022/08/07 11:40:43;;;;;;;0.80;0.35;;;27.90;60.80;;;;;;5095970;28;20073;-74
2022/08/07 11:43:41;;;;;;;2.03;1.02;;;28.20;59.90;;;;;;5114160;28;20020;-74
2022/08/07 11:46:26;;;;;;;0.32;0.32;;;28.20;59.60;;;;;;5113819;28;20039;-75
2022/08/07 11:49:16;;;;;;;0.85;0.50;;;28.70;57.70;;;;;;5095717;28;20042;-73
2022/08/07 11:52:09;;;;;;;0.55;0.55;;;28.90;57.70;;;;;;5113466;28;20480;-75
2022/08/07 11:54:51;;;;;;;0.95;0.73;;;28.80;57.40;;;;;;5113594;28;20016;-73
2022/08/07 11:57:30;;;;;;;0.47;0.30;;;28.90;57.70;;;;;;5114015;28;20016;-77
2022/08/07 12:00:37;;;;;;;0.30;0.30;;;29.40;57.60;;;;;;5113817;28;20375;-75
2022/08/07 12:03:21;;;;;;;0.20;0.20;;;29.30;57.80;;;;;;5073625;28;20119;-73
2022/08/07 12:06:05;;;;;;;4.40;1.77;;;29.20;57.50;;;;;;5113757;28;20032;-76
2022/08/07 12:08:50;;;;;;;0.50;0.50;;;29.60;56.20;;;;;;5113667;28;20030;-76
2022/08/07 12:11:21;;;;;;;0.45;0.38;;;30.10;56.30;;;;;;5113509;28;20019;-75
2022/08/07 12:13:55;;;;;;;0.17;0.17;;;30.50;55.50;;;;;;5113518;28;20023;-76
2022/08/07 12:16:28;;;;;;;0.75;0.70;;;30.40;55.20;;;;;;5113550;28;20039;-74
2022/08/07 12:19:17;;;;;;;0.60;0.60;;;30.40;57.50;;;;;;5113612;28;20043;-77
2022/08/07 12:22:03;;;;;;;0.28;0.28;;;30.10;55.10;;;;;;5113651;28;20020;-76
2022/08/07 12:27:38;;;;;;;1.00;0.70;;;28.80;56.70;;;;;;5113737;28;20065;-74
2022/08/07 12:30:07;;;;;;;0.30;0.30;;;27.80;58.50;;;;;;5113610;28;20361;-74
2022/08/07 12:32:49;;;;;;;0.10;0.10;;;27.20;58.90;;;;;;5113367;28;20039;-76
2022/08/07 12:35:16;;;;;;;0.45;0.45;;;27.30;59.20;;;;;;5113574;28;20054;-74
2022/08/07 12:37:45;;;;;;;1.17;0.70;;;26.60;60.10;;;;;;5113366;28;20052;-73
2022/08/07 12:40:15;;;;;;;0.90;0.47;;;26.50;61.60;;;;;;5113175;28;20032;-74
2022/08/07 12:42:43;;;;;;;0.52;0.52;;;26.70;62.90;;;;;;5113426;28;20105;-74
2022/08/07 12:45:15;;;;;;;0.32;0.30;;;27.10;62.40;;;;;;5113299;28;20035;-75
2022/08/07 12:47:55;;;;;;;0.65;0.40;;;28.10;60.60;;;;;;5113337;28;20491;-74
2022/08/07 12:50:53;;;;;;;0.47;0.47;;;29.10;59.70;;;;;;5113257;28;20034;-74
2022/08/07 12:53:36;;;;;;;1.75;0.60;;;29.90;55.50;;;;;;5094754;28;20052;-74
2022/08/07 12:56:11;;;;;;;0.30;0.30;;;29.80;55.60;;;;;;5094993;28;20031;-75
2022/08/07 12:58:41;;;;;;;0.60;0.52;;;30.00;54.80;;;;;;5094939;28;20019;-74
2022/08/07 13:01:21;;;;;;;0.47;0.30;;;29.90;55.00;;;;;;5095007;28;20065;-74
2022/08/07 13:04:11;;;;;;;0.47;0.47;;;30.30;54.80;;;;;;5114058;28;20055;-74
2022/08/07 13:07:07;;;;;;;2.17;0.20;;;29.80;55.70;;;;;;5117123;28;20110;-75
2022/08/07 13:10:02;;;;;;;0.47;0.40;;;28.60;58.60;;;;;;5117028;28;20031;-75
2022/08/07 13:12:58;;;;;;;0.20;0.20;;;27.90;59.50;;;;;;5117044;28;20020;-75
2022/08/07 13:15:38;;;;;;;0.35;0.35;;;27.90;60.00;;;;;;5116942;28;20030;-74
2022/08/07 13:18:41;;;;;;;1.08;0.63;;;28.90;59.60;;;;;;5117103;28;20035;-74
2022/08/07 13:21:25;;;;;;;0.73;0.50;;;30.00;57.00;;;;;;5073139;28;20027;-74
2022/08/07 13:23:58;;;;;;;0.20;0.20;;;30.10;55.90;;;;;;5116701;28;20028;-77
2022/08/07 13:26:41;;;;;;;0.43;0.43;;;30.40;55.70;;;;;;5116638;28;20039;-74
2022/08/07 13:29:22;;;;;;;1.02;0.50;;;29.80;56.40;;;;;;5116631;28;20497;-75
2022/08/07 13:31:53;;;;;;;0.30;0.30;;;30.40;56.50;;;;;;5116739;28;20545;-75